Time;durP1;ratioP1;P1;durP2;ratioP2;P2;SDS_P1;SDS_P2;PMS_P1;PMS_P2;Temp;Humidity;BMP_temperature;BMP_pressure;BME280_temperature;BME280_humidity;BME280_pressure;Samples;Min_cycle;Max_cycle;Signal;HPM_P1;HPM_P2
2021/06/04 00:01:48;;;;;;;1.08;0.80;;;21.70;99.90;;;;;;5086376;28;20568;-56
2021/06/04 00:04:14;;;;;;;2.42;0.93;;;21.60;99.90;;;;;;5087053;28;20028;-56
2021/06/04 00:06:40;;;;;;;1.33;0.80;;;21.60;99.90;;;;;;5086136;28;20390;-56
2021/06/04 00:09:09;;;;;;;1.73;0.82;;;21.60;99.90;;;;;;5086109;28;20471;-54
2021/06/04 00:11:41;;;;;;;0.90;0.75;;;21.60;99.90;;;;;;5086453;28;20121;-56
2021/06/04 00:14:17;;;;;;;0.70;0.70;;;21.60;99.90;;;;;;5086622;28;20371;-56
2021/06/04 00:16:50;;;;;;;0.70;0.70;;;21.60;99.90;;;;;;5085921;28;20020;-56
2021/06/04 00:19:20;;;;;;;1.02;0.60;;;21.50;99.90;;;;;;5083242;28;20028;-56
2021/06/04 00:22:08;;;;;;;0.60;0.60;;;21.50;99.90;;;;;;5085932;28;20073;-56
2021/06/04 00:24:37;;;;;;;1.33;0.73;;;21.50;99.90;;;;;;5084595;28;20057;-56
2021/06/04 00:27:03;;;;;;;1.45;0.80;;;21.30;99.90;;;;;;5086282;28;20103;-56
2021/06/04 00:29:29;;;;;;;0.70;0.70;;;21.40;99.90;;;;;;5086292;28;20035;-56
2021/06/04 00:31:55;;;;;;;0.50;0.50;;;21.50;99.90;;;;;;5085693;28;20024;-56
2021/06/04 00:34:22;;;;;;;0.40;0.40;;;21.60;99.90;;;;;;5085131;28;20071;-57
2021/06/04 00:36:48;;;;;;;0.60;0.60;;;21.50;99.90;;;;;;5075563;28;20032;-57
2021/06/04 00:39:16;;;;;;;1.88;0.80;;;21.60;99.90;;;;;;5084531;28;20031;-57
2021/06/04 00:41:49;;;;;;;0.65;0.65;;;21.60;99.90;;;;;;5086162;28;20028;-58
2021/06/04 00:44:15;;;;;;;0.60;0.60;;;21.70;99.90;;;;;;5085912;28;20534;-58
2021/06/04 00:46:41;;;;;;;0.57;0.50;;;21.80;99.90;;;;;;5087527;28;20035;-57
2021/06/04 00:49:07;;;;;;;0.82;0.52;;;21.70;99.90;;;;;;5087383;28;20036;-57
2021/06/04 00:51:39;;;;;;;0.55;0.55;;;21.50;99.90;;;;;;5087049;28;20047;-57
2021/06/04 00:54:08;;;;;;;0.60;0.60;;;21.30;99.90;;;;;;5087266;28;20724;-57
2021/06/04 00:56:36;;;;;;;0.60;0.60;;;21.40;99.90;;;;;;5087479;28;20149;-57
2021/06/04 00:59:03;;;;;;;0.50;0.50;;;21.40;99.90;;;;;;5087076;28;20027;-56
2021/06/04 01:01:34;;;;;;;0.50;0.50;;;21.30;99.90;;;;;;5088031;28;20374;-57
2021/06/04 01:04:08;;;;;;;0.82;0.60;;;21.30;99.90;;;;;;5087587;28;20137;-57
2021/06/04 01:06:43;;;;;;;0.57;0.57;;;21.30;99.90;;;;;;5087451;28;20123;-57
2021/06/04 01:09:25;;;;;;;0.65;0.65;;;21.20;99.90;;;;;;5087216;28;20478;-57
2021/06/04 01:12:08;;;;;;;0.73;0.60;;;21.20;99.90;;;;;;5087074;28;20063;-56
2021/06/04 01:14:55;;;;;;;1.37;0.70;;;21.20;99.90;;;;;;5087266;28;20020;-57
2021/06/04 01:17:36;;;;;;;0.57;0.57;;;21.30;99.90;;;;;;5087269;28;20515;-56
2021/06/04 01:20:17;;;;;;;0.60;0.60;;;21.30;99.90;;;;;;5086450;28;20024;-56
2021/06/04 01:23:14;;;;;;;1.40;0.95;;;21.30;99.90;;;;;;5086751;28;20078;-56
2021/06/04 01:25:48;;;;;;;1.85;0.70;;;21.30;99.90;;;;;;5086997;28;20061;-56
2021/06/04 01:28:21;;;;;;;0.60;0.60;;;21.30;99.90;;;;;;5086833;28;20036;-56
2021/06/04 01:31:05;;;;;;;0.55;0.55;;;21.20;99.90;;;;;;5086682;28;20024;-56
2021/06/04 01:34:08;;;;;;;0.50;0.50;;;21.20;99.90;;;;;;5085659;28;20028;-56
2021/06/04 01:36:41;;;;;;;0.60;0.60;;;21.00;99.90;;;;;;5086240;28;20031;-56
2021/06/04 01:39:15;;;;;;;0.57;0.57;;;21.10;99.90;;;;;;5086778;28;20031;-56
2021/06/04 01:41:45;;;;;;;0.60;0.60;;;21.10;99.90;;;;;;5086746;28;20032;-56
2021/06/04 01:44:17;;;;;;;0.60;0.60;;;21.30;99.90;;;;;;5086755;28;20032;-57
2021/06/04 01:46:49;;;;;;;0.90;0.60;;;21.10;99.90;;;;;;5086520;28;20028;-56
2021/06/04 01:49:20;;;;;;;0.77;0.60;;;21.30;99.90;;;;;;5086580;28;20539;-56
2021/06/04 01:52:11;;;;;;;0.50;0.50;;;21.40;99.90;;;;;;5085840;28;20024;-56
2021/06/04 01:54:40;;;;;;;0.43;0.43;;;21.40;99.90;;;;;;5086702;28;20024;-57
2021/06/04 01:57:11;;;;;;;0.50;0.50;;;21.50;99.90;;;;;;5086670;28;20028;-56
2021/06/04 01:59:41;;;;;;;0.70;0.70;;;21.50;99.90;;;;;;5086948;28;20024;-56
2021/06/04 02:02:08;;;;;;;0.40;0.40;;;21.50;99.90;;;;;;5085402;28;20115;-56
2021/06/04 02:04:50;;;;;;;0.70;0.70;;;21.60;99.90;;;;;;5086795;28;20481;-56
2021/06/04 02:07:19;;;;;;;0.45;0.45;;;21.50;99.90;;;;;;5086376;28;20032;-56
2021/06/04 02:09:46;;;;;;;0.75;0.60;;;21.50;99.90;;;;;;5086005;28;20028;-56
2021/06/04 02:12:12;;;;;;;0.50;0.50;;;21.40;99.90;;;;;;5086652;28;20028;-56
2021/06/04 02:15:06;;;;;;;0.50;0.50;;;21.50;99.90;;;;;;5086568;28;20024;-56
2021/06/04 02:17:41;;;;;;;0.82;0.65;;;21.40;99.90;;;;;;5066168;28;20162;-56
2021/06/04 02:20:51;;;;;;;0.60;0.60;;;21.40;99.90;;;;;;5066336;28;20036;-56
2021/06/04 02:23:17;;;;;;;0.65;0.65;;;21.30;99.90;;;;;;5067946;28;20040;-57
2021/06/04 02:26:12;;;;;;;0.60;0.60;;;21.40;99.90;;;;;;5065615;28;20031;-56
2021/06/04 02:28:47;;;;;;;0.65;0.65;;;21.00;99.90;;;;;;5066329;28;20029;-57
2021/06/04 02:31:16;;;;;;;;;;;21.10;99.90;;;;;;5083014;28;20032;-56
2021/06/04 02:33:51;;;;;;;0.68;0.40;;;21.20;99.90;;;;;;5088823;28;20321;-57
2021/06/04 02:36:22;;;;;;;0.40;0.40;;;21.10;99.90;;;;;;5089597;28;20036;-58
2021/06/04 02:38:49;;;;;;;1.13;0.60;;;21.10;99.90;;;;;;5089816;28;20052;-56
2021/06/04 02:41:40;;;;;;;0.50;0.50;;;20.90;99.90;;;;;;5090169;28;20032;-56
2021/06/04 02:44:13;;;;;;;0.40;0.40;;;21.10;99.90;;;;;;5089490;28;20146;-57
2021/06/04 02:46:43;;;;;;;0.60;0.60;;;21.10;99.90;;;;;;5090673;28;20028;-56
2021/06/04 02:49:11;;;;;;;0.38;0.38;;;21.20;99.90;;;;;;5090421;28;20449;-56
2021/06/04 02:51:41;;;;;;;0.68;0.50;;;21.10;99.90;;;;;;5089430;28;20060;-56
2021/06/04 02:54:17;;;;;;;0.55;0.50;;;21.00;99.90;;;;;;5090257;28;20031;-56
2021/06/04 02:56:46;;;;;;;0.50;0.50;;;20.90;99.90;;;;;;5089670;28;20040;-57
2021/06/04 02:59:16;;;;;;;0.50;0.50;;;21.10;99.90;;;;;;5089669;28;20034;-56
2021/06/04 03:02:03;;;;;;;0.60;0.60;;;21.00;99.90;;;;;;5089678;28;20449;-57
2021/06/04 03:04:32;;;;;;;0.40;0.40;;;20.90;99.90;;;;;;5089775;28;20035;-56
2021/06/04 03:07:00;;;;;;;0.50;0.50;;;21.00;99.90;;;;;;5089282;28;20526;-56
2021/06/04 03:09:34;;;;;;;0.45;0.45;;;21.00;99.90;;;;;;5089380;28;20028;-56
2021/06/04 03:12:04;;;;;;;0.40;0.40;;;21.00;99.90;;;;;;5089148;28;20432;-56
2021/06/04 03:14:30;;;;;;;0.40;0.40;;;21.00;99.90;;;;;;5089086;28;20056;-56
2021/06/04 03:16:58;;;;;;;0.60;0.60;;;21.00;99.90;;;;;;5088978;28;20526;-56
2021/06/04 03:19:25;;;;;;;0.50;0.50;;;21.10;99.90;;;;;;5089422;28;20027;-56
2021/06/04 03:21:55;;;;;;;1.20;0.65;;;21.00;99.90;;;;;;5088980;28;20039;-56
2021/06/04 03:24:29;;;;;;;0.50;0.50;;;21.10;99.90;;;;;;5089432;28;20723;-56
2021/06/04 03:26:56;;;;;;;0.40;0.40;;;21.10;99.90;;;;;;5089186;28;20035;-56
2021/06/04 03:29:22;;;;;;;0.47;0.47;;;21.10;99.90;;;;;;5089101;28;20032;-56
2021/06/04 03:31:53;;;;;;;0.40;0.40;;;21.10;99.90;;;;;;5088296;28;20044;-56
2021/06/04 03:34:19;;;;;;;0.40;0.40;;;21.10;99.90;;;;;;5088739;28;20051;-56
2021/06/04 03:36:48;;;;;;;0.50;0.50;;;21.20;99.90;;;;;;5088494;28;20028;-56
2021/06/04 03:39:20;;;;;;;0.50;0.50;;;21.10;99.90;;;;;;5074593;28;20028;-56
2021/06/04 03:41:48;;;;;;;0.50;0.50;;;20.90;99.90;;;;;;5068088;28;20115;-56
2021/06/04 03:44:16;;;;;;;0.60;0.60;;;21.00;99.90;;;;;;5069027;28;20027;-56
2021/06/04 03:46:42;;;;;;;0.55;0.55;;;21.10;99.90;;;;;;5068396;28;20036;-56
2021/06/04 03:49:09;;;;;;;1.00;0.60;;;21.00;99.90;;;;;;5069003;28;20024;-56
2021/06/04 03:51:38;;;;;;;0.40;0.40;;;20.90;99.90;;;;;;5066485;28;20809;-56
2021/06/04 03:54:07;;;;;;;0.60;0.50;;;20.90;99.90;;;;;;5066933;28;20491;-56
2021/06/04 03:56:33;;;;;;;0.50;0.50;;;20.80;99.90;;;;;;5068233;28;20027;-56
2021/06/04 03:59:00;;;;;;;0.40;0.40;;;20.70;99.90;;;;;;5068012;28;20025;-56
2021/06/04 04:01:50;;;;;;;0.60;0.43;;;20.80;99.90;;;;;;5068472;28;20618;-56
2021/06/04 04:04:16;;;;;;;0.40;0.40;;;20.70;99.90;;;;;;5068090;28;20044;-56
2021/06/04 04:06:42;;;;;;;0.93;0.60;;;20.60;99.90;;;;;;5069589;28;20036;-56
2021/06/04 04:09:10;;;;;;;0.40;0.40;;;20.70;99.90;;;;;;5070636;28;20100;-56
2021/06/04 04:11:38;;;;;;;0.50;0.50;;;20.80;99.90;;;;;;5068586;28;20035;-56
2021/06/04 04:14:05;;;;;;;0.55;0.40;;;20.80;99.90;;;;;;5080559;28;20565;-56
2021/06/04 04:16:31;;;;;;;1.00;0.50;;;20.70;99.90;;;;;;5066634;28;20674;-56
2021/06/04 04:18:57;;;;;;;0.52;0.52;;;20.50;99.90;;;;;;5077553;28;20035;-56
2021/06/04 04:21:23;;;;;;;0.50;0.50;;;20.50;99.90;;;;;;5068669;28;20031;-56
2021/06/04 04:23:53;;;;;;;0.40;0.40;;;20.40;99.90;;;;;;5087922;28;20024;-56
2021/06/04 04:26:23;;;;;;;0.40;0.40;;;20.40;99.90;;;;;;5087071;28;20016;-57
2021/06/04 04:28:50;;;;;;;0.40;0.40;;;20.40;99.90;;;;;;5087077;28;20020;-60
2021/06/04 04:31:19;;;;;;;0.40;0.40;;;20.30;99.90;;;;;;5076127;28;20030;-57
2021/06/04 04:33:45;;;;;;;0.45;0.45;;;20.40;99.90;;;;;;5067390;28;20035;-56
2021/06/04 04:36:12;;;;;;;0.50;0.50;;;20.30;99.90;;;;;;5068397;28;20024;-56
2021/06/04 04:38:38;;;;;;;0.50;0.50;;;20.30;99.90;;;;;;5077324;28;20090;-56
2021/06/04 04:41:05;;;;;;;0.52;0.50;;;20.30;99.90;;;;;;5087507;28;20024;-56
2021/06/04 04:43:35;;;;;;;0.32;0.32;;;20.30;99.90;;;;;;5088073;28;20727;-56
2021/06/04 04:46:04;;;;;;;0.40;0.40;;;20.20;99.90;;;;;;5086790;28;20493;-55
2021/06/04 04:48:31;;;;;;;1.00;0.70;;;20.00;99.90;;;;;;5081408;28;20032;-56
2021/06/04 04:50:57;;;;;;;0.63;0.60;;;19.90;99.90;;;;;;5066536;28;20612;-57
2021/06/04 04:53:24;;;;;;;0.93;0.50;;;19.80;99.90;;;;;;5066353;28;20025;-56
2021/06/04 04:55:50;;;;;;;0.57;0.52;;;20.10;99.90;;;;;;5066744;28;20107;-56
2021/06/04 04:58:18;;;;;;;0.45;0.45;;;20.10;99.90;;;;;;5067419;28;20050;-56
2021/06/04 05:00:44;;;;;;;0.40;0.40;;;20.10;99.90;;;;;;5066881;28;20444;-57
2021/06/04 05:03:13;;;;;;;0.88;0.60;;;20.30;99.90;;;;;;5068051;28;20028;-56
2021/06/04 05:05:39;;;;;;;0.38;0.38;;;20.20;99.90;;;;;;5067621;28;20063;-57
2021/06/04 05:08:05;;;;;;;0.40;0.40;;;20.10;99.90;;;;;;5084223;28;20027;-57
2021/06/04 05:10:32;;;;;;;0.40;0.40;;;20.00;99.90;;;;;;5075473;28;20035;-56
2021/06/04 05:12:58;;;;;;;0.57;0.52;;;20.00;99.90;;;;;;5067030;28;20013;-57
2021/06/04 05:15:28;;;;;;;0.47;0.43;;;20.00;99.90;;;;;;5067199;28;20620;-57
2021/06/04 05:17:54;;;;;;;0.90;0.77;;;19.90;99.90;;;;;;5066978;28;20048;-57
2021/06/04 05:20:21;;;;;;;0.98;0.60;;;19.90;99.90;;;;;;5067005;28;20059;-57
2021/06/04 05:22:47;;;;;;;0.55;0.55;;;19.90;99.90;;;;;;5066772;28;20056;-56
2021/06/04 05:25:19;;;;;;;0.82;0.60;;;19.80;99.90;;;;;;5066940;28;20102;-56
2021/06/04 05:27:45;;;;;;;0.70;0.60;;;19.90;99.90;;;;;;5066778;28;20032;-57
2021/06/04 05:30:31;;;;;;;0.60;0.52;;;19.90;99.90;;;;;;5067161;28;20039;-60
2021/06/04 05:32:57;;;;;;;0.38;0.38;;;19.90;99.90;;;;;;5065956;28;20036;-58
2021/06/04 05:35:24;;;;;;;0.50;0.50;;;19.90;99.90;;;;;;5066602;28;20032;-58
2021/06/04 05:37:50;;;;;;;1.25;0.57;;;19.90;99.90;;;;;;5073058;28;20016;-58
2021/06/04 05:40:21;;;;;;;1.95;0.60;;;20.00;99.90;;;;;;5087722;28;20028;-58
2021/06/04 05:42:48;;;;;;;0.63;0.63;;;19.70;99.90;;;;;;5086785;28;20032;-58
2021/06/04 05:45:17;;;;;;;0.50;0.50;;;19.80;99.90;;;;;;5086777;28;20028;-57
2021/06/04 05:47:46;;;;;;;0.43;0.43;;;20.00;99.90;;;;;;5086568;28;20035;-58
2021/06/04 05:50:20;;;;;;;0.57;0.57;;;20.10;99.90;;;;;;5086414;28;20055;-58
2021/06/04 05:52:46;;;;;;;0.52;0.52;;;19.90;99.90;;;;;;5085845;28;20657;-58
2021/06/04 05:55:15;;;;;;;0.35;0.35;;;19.90;99.90;;;;;;5087035;28;20032;-58
2021/06/04 05:57:42;;;;;;;1.25;0.63;;;20.10;99.90;;;;;;5087170;28;20047;-58
2021/06/04 06:00:12;;;;;;;0.40;0.40;;;20.30;99.90;;;;;;5087207;28;20028;-58
2021/06/04 06:02:39;;;;;;;0.40;0.40;;;20.30;99.90;;;;;;5087253;28;20667;-58
2021/06/04 06:05:06;;;;;;;0.70;0.70;;;20.40;99.90;;;;;;5087925;28;20451;-58
2021/06/04 06:07:31;;;;;;;0.40;0.40;;;20.30;99.90;;;;;;5090920;28;20227;-58
2021/06/04 06:09:57;;;;;;;0.55;0.50;;;20.40;99.90;;;;;;5090439;28;20086;-57
2021/06/04 06:12:23;;;;;;;0.50;0.50;;;20.50;99.90;;;;;;5090908;28;20363;-57
2021/06/04 06:14:49;;;;;;;0.50;0.50;;;20.50;99.90;;;;;;5075788;28;20108;-58
2021/06/04 06:17:14;;;;;;;0.40;0.40;;;20.50;99.90;;;;;;5071009;28;20437;-58
2021/06/04 06:19:40;;;;;;;1.75;0.60;;;20.50;99.90;;;;;;5069501;28;20082;-58
2021/06/04 06:22:06;;;;;;;0.90;0.70;;;20.40;99.90;;;;;;5069228;28;20090;-58
2021/06/04 06:24:32;;;;;;;0.45;0.45;;;20.50;99.90;;;;;;5069716;28;20038;-59
2021/06/04 06:26:57;;;;;;;0.40;0.40;;;20.60;99.90;;;;;;5072098;28;20059;-58
2021/06/04 06:29:24;;;;;;;0.50;0.50;;;20.80;99.90;;;;;;5089661;28;20581;-58
2021/06/04 06:31:50;;;;;;;0.43;0.43;;;20.70;99.90;;;;;;5087049;28;20055;-57
2021/06/04 06:34:16;;;;;;;0.40;0.40;;;20.60;99.90;;;;;;5081305;28;20055;-57
2021/06/04 06:36:44;;;;;;;0.63;0.50;;;20.70;99.90;;;;;;5070252;28;20107;-58
2021/06/04 06:39:24;;;;;;;0.77;0.60;;;20.70;99.90;;;;;;5083007;28;20068;-58
2021/06/04 06:41:50;;;;;;;0.40;0.40;;;20.80;99.90;;;;;;5090070;28;20414;-56
2021/06/04 06:44:17;;;;;;;0.40;0.40;;;20.80;99.90;;;;;;5089851;28;20098;-57
2021/06/04 06:46:44;;;;;;;0.47;0.47;;;20.90;99.90;;;;;;5090260;28;20474;-57
2021/06/04 06:49:11;;;;;;;0.40;0.40;;;21.00;99.90;;;;;;5089773;28;20058;-57
2021/06/04 06:51:37;;;;;;;0.45;0.43;;;21.00;99.90;;;;;;5088766;28;21043;-57
2021/06/04 06:54:09;;;;;;;0.50;0.50;;;21.00;99.90;;;;;;5089863;28;20020;-57
2021/06/04 06:56:35;;;;;;;0.50;0.40;;;21.00;99.90;;;;;;5089972;28;20026;-57
2021/06/04 06:59:01;;;;;;;3.13;0.70;;;21.10;99.90;;;;;;5089703;28;20114;-57
2021/06/04 07:01:28;;;;;;;0.63;0.60;;;21.00;99.90;;;;;;5089721;28;20724;-57
2021/06/04 07:03:53;;;;;;;0.60;0.57;;;21.00;99.90;;;;;;5089405;28;20032;-57
2021/06/04 07:06:26;;;;;;;0.52;0.50;;;20.90;99.90;;;;;;5089422;28;20027;-57
2021/06/04 07:08:52;;;;;;;0.60;0.60;;;21.00;99.90;;;;;;5089423;28;20123;-57
2021/06/04 07:11:19;;;;;;;1.30;0.80;;;21.10;99.90;;;;;;5077361;28;20040;-57
2021/06/04 07:13:48;;;;;;;2.70;0.80;;;21.10;99.90;;;;;;5085947;28;20037;-57
2021/06/04 07:16:13;;;;;;;0.82;0.60;;;21.10;99.90;;;;;;5083599;28;20040;-57
2021/06/04 07:18:40;;;;;;;0.95;0.82;;;21.20;99.90;;;;;;5068028;28;20494;-57
2021/06/04 07:21:09;;;;;;;3.67;1.20;;;21.20;99.90;;;;;;5066549;28;20020;-56
2021/06/04 07:23:34;;;;;;;0.88;0.88;;;21.10;99.90;;;;;;5072011;28;20035;-57
2021/06/04 07:26:00;;;;;;;0.88;0.88;;;21.20;99.90;;;;;;5083788;28;20072;-57
2021/06/04 07:28:33;;;;;;;0.77;0.70;;;21.30;99.90;;;;;;5087914;28;20032;-57
2021/06/04 07:31:01;;;;;;;0.45;0.45;;;21.60;99.90;;;;;;5067835;28;20153;-57
2021/06/04 07:33:37;;;;;;;0.68;0.50;;;21.70;99.90;;;;;;5068499;28;20032;-57
2021/06/04 07:36:08;;;;;;;0.60;0.60;;;21.80;99.90;;;;;;5068703;28;20025;-57
2021/06/04 07:38:35;;;;;;;0.50;0.50;;;21.90;99.90;;;;;;5072516;28;21165;-57
2021/06/04 07:41:04;;;;;;;0.68;0.60;;;21.80;99.90;;;;;;5081720;28;20130;-57
2021/06/04 07:43:34;;;;;;;0.73;0.73;;;21.90;99.90;;;;;;5075539;28;20486;-57
2021/06/04 07:46:00;;;;;;;0.88;0.70;;;21.90;99.90;;;;;;5068578;28;20024;-57
2021/06/04 07:48:26;;;;;;;0.60;0.60;;;21.90;99.90;;;;;;5068431;28;20037;-57
2021/06/04 07:50:54;;;;;;;0.80;0.70;;;21.90;99.90;;;;;;5066972;28;20402;-57
2021/06/04 07:53:24;;;;;;;2.25;0.98;;;22.00;99.90;;;;;;5066584;28;20032;-56
2021/06/04 07:55:50;;;;;;;0.85;0.50;;;21.90;99.90;;;;;;5066617;28;20020;-57
2021/06/04 07:58:17;;;;;;;0.57;0.57;;;21.90;99.90;;;;;;5067213;28;20047;-57
2021/06/04 08:00:43;;;;;;;0.52;0.50;;;22.00;99.90;;;;;;5067200;28;20023;-57
2021/06/04 08:03:10;;;;;;;0.60;0.60;;;22.10;99.90;;;;;;5066951;28;20452;-57
2021/06/04 08:05:37;;;;;;;0.75;0.70;;;22.20;99.90;;;;;;5066807;28;20048;-57
2021/06/04 08:08:06;;;;;;;0.63;0.63;;;22.20;99.90;;;;;;5066726;28;20049;-55
2021/06/04 08:10:33;;;;;;;0.50;0.50;;;22.40;99.90;;;;;;5066817;28;20025;-57
2021/06/04 08:13:00;;;;;;;0.60;0.60;;;22.30;99.90;;;;;;5070735;28;20024;-56
2021/06/04 08:15:36;;;;;;;2.33;0.90;;;22.20;99.90;;;;;;5087457;28;20308;-56
2021/06/04 08:18:03;;;;;;;0.98;0.70;;;22.30;99.90;;;;;;5084162;28;20504;-58
2021/06/04 08:20:33;;;;;;;0.70;0.70;;;22.30;99.90;;;;;;5085990;28;20401;-57
2021/06/04 08:23:02;;;;;;;0.63;0.63;;;22.40;99.90;;;;;;5085014;28;20666;-57
2021/06/04 08:25:32;;;;;;;1.25;0.93;;;22.50;99.90;;;;;;5087336;28;20106;-57
2021/06/04 08:27:58;;;;;;;0.88;0.80;;;22.40;99.90;;;;;;5085146;28;20024;-56
2021/06/04 08:30:24;;;;;;;1.20;0.75;;;22.40;99.90;;;;;;5085031;28;20030;-57
2021/06/04 08:32:50;;;;;;;0.55;0.55;;;22.50;99.90;;;;;;5085919;28;20128;-56
2021/06/04 08:35:16;;;;;;;0.70;0.70;;;22.50;99.90;;;;;;5086450;28;20058;-57
2021/06/04 08:37:42;;;;;;;1.23;0.90;;;22.60;99.90;;;;;;5083742;28;20032;-57
2021/06/04 08:40:12;;;;;;;1.00;0.90;;;22.60;99.90;;;;;;5077178;28;20071;-57
2021/06/04 08:42:48;;;;;;;0.50;0.50;;;22.70;99.90;;;;;;5086246;28;20032;-56
2021/06/04 08:45:25;;;;;;;0.60;0.50;;;22.80;99.90;;;;;;5069460;28;20028;-55
2021/06/04 08:47:59;;;;;;;0.60;0.50;;;22.90;99.90;;;;;;5065038;28;20067;-56
2021/06/04 08:50:49;;;;;;;2.13;1.10;;;22.80;99.90;;;;;;5072603;28;20035;-56
2021/06/04 08:53:49;;;;;;;0.70;0.70;;;22.80;99.90;;;;;;5085573;28;20027;-57
2021/06/04 08:56:19;;;;;;;0.40;0.40;;;22.80;99.90;;;;;;5086534;28;20028;-57
2021/06/04 08:58:48;;;;;;;0.43;0.43;;;23.00;99.90;;;;;;5085483;28;20031;-57
2021/06/04 09:01:35;;;;;;;0.65;0.60;;;23.10;99.90;;;;;;5089952;28;20028;-57
2021/06/04 09:04:08;;;;;;;0.60;0.60;;;22.90;99.90;;;;;;5106137;28;20236;-56
2021/06/04 09:07:01;;;;;;;0.47;0.45;;;23.00;99.90;;;;;;5092513;28;20525;-56
2021/06/04 09:09:42;;;;;;;0.50;0.50;;;23.10;99.90;;;;;;5085644;28;20576;-57
2021/06/04 09:12:18;;;;;;;0.98;0.50;;;23.20;99.90;;;;;;5085372;28;20410;-56
2021/06/04 09:14:45;;;;;;;0.40;0.40;;;23.20;99.90;;;;;;5086222;28;20078;-57
2021/06/04 09:17:33;;;;;;;0.45;0.45;;;23.20;99.90;;;;;;5086734;28;20028;-56
2021/06/04 09:20:39;;;;;;;0.45;0.45;;;23.00;99.90;;;;;;5105673;28;20512;-57
2021/06/04 09:23:08;;;;;;;0.70;0.70;;;23.00;99.90;;;;;;5105874;28;20489;-57
2021/06/04 09:25:36;;;;;;;0.60;0.50;;;23.10;99.90;;;;;;5105897;28;20024;-57
2021/06/04 09:28:14;;;;;;;0.73;0.60;;;23.20;99.90;;;;;;5105379;28;20041;-56
2021/06/04 09:30:42;;;;;;;0.60;0.60;;;23.30;99.90;;;;;;5104696;28;20023;-56
2021/06/04 09:33:42;;;;;;;1.30;0.50;;;23.30;99.90;;;;;;5094903;28;20066;-56
2021/06/04 09:36:15;;;;;;;0.40;0.40;;;23.30;99.90;;;;;;5085559;28;20073;-57
2021/06/04 09:39:14;;;;;;;0.40;0.40;;;23.40;99.90;;;;;;5085784;28;20387;-56
2021/06/04 09:41:44;;;;;;;0.47;0.43;;;23.50;99.90;;;;;;5085749;28;20012;-56
2021/06/04 09:44:21;;;;;;;0.50;0.50;;;23.50;99.90;;;;;;5073544;28;20055;-56
2021/06/04 09:47:28;;;;;;;0.52;0.47;;;23.60;99.90;;;;;;5064681;28;20119;-56
2021/06/04 09:49:54;;;;;;;0.60;0.60;;;23.70;99.90;;;;;;5062730;28;20051;-56
2021/06/04 09:52:31;;;;;;;0.57;0.40;;;23.80;99.90;;;;;;5063703;28;20148;-56
2021/06/04 09:55:22;;;;;;;0.77;0.70;;;23.90;99.90;;;;;;5065276;28;20036;-56
2021/06/04 09:58:12;;;;;;;0.73;0.73;;;23.80;99.90;;;;;;5074982;28;20517;-57
2021/06/04 10:00:48;;;;;;;0.73;0.65;;;23.80;99.90;;;;;;5088298;28;20028;-57
2021/06/04 10:03:28;;;;;;;0.65;0.60;;;24.00;99.90;;;;;;5080560;28;20107;-57
2021/06/04 10:06:06;;;;;;;1.10;0.70;;;24.00;99.90;;;;;;5075035;28;20480;-56
2021/06/04 10:08:43;;;;;;;0.60;0.60;;;24.10;99.90;;;;;;5085796;28;20032;-57
2021/06/04 10:11:26;;;;;;;0.60;0.60;;;24.20;99.90;;;;;;5068038;28;20112;-58
2021/06/04 10:13:57;;;;;;;0.70;0.70;;;24.30;99.90;;;;;;5065657;28;20606;-57
2021/06/04 10:19:30;;;;;;;1.10;0.80;;;24.20;99.90;;;;;;5086490;28;20066;-57
2021/06/04 10:22:17;;;;;;;0.90;0.70;;;24.20;99.90;;;;;;5086141;28;20024;-57
2021/06/04 10:24:53;;;;;;;1.15;0.70;;;24.20;99.90;;;;;;5086818;28;20046;-57
2021/06/04 10:27:39;;;;;;;1.33;0.80;;;24.20;99.90;;;;;;5082944;28;20331;-57
2021/06/04 10:30:17;;;;;;;1.25;0.80;;;24.20;99.90;;;;;;5075720;28;20036;-56
2021/06/04 10:33:04;;;;;;;1.05;0.88;;;24.40;99.90;;;;;;5071156;28;20055;-57
2021/06/04 10:35:50;;;;;;;1.25;0.88;;;24.50;99.90;;;;;;5086207;28;20107;-57
2021/06/04 10:38:35;;;;;;;1.05;0.93;;;24.50;99.90;;;;;;5080989;28;20478;-57
2021/06/04 10:41:10;;;;;;;1.20;0.50;;;24.60;99.90;;;;;;5077664;28;20126;-56
2021/06/04 10:44:03;;;;;;;0.68;0.68;;;24.60;99.90;;;;;;5081179;28;20024;-56
2021/06/04 10:47:02;;;;;;;1.25;0.98;;;24.80;99.90;;;;;;5076029;28;20028;-56
2021/06/04 10:49:50;;;;;;;0.80;0.77;;;24.80;99.90;;;;;;5076632;28;20813;-62
2021/06/04 10:52:37;;;;;;;0.80;0.77;;;24.80;99.90;;;;;;5066983;28;20031;-62
2021/06/04 10:55:16;;;;;;;1.08;0.90;;;25.00;99.90;;;;;;5087814;28;20024;-62
2021/06/04 10:58:05;;;;;;;0.95;0.60;;;25.00;99.90;;;;;;5089933;28;20034;-62
2021/06/04 11:00:44;;;;;;;0.77;0.77;;;25.00;99.90;;;;;;5083816;28;20024;-61
2021/06/04 11:03:25;;;;;;;1.30;0.90;;;25.00;99.90;;;;;;5081346;28;20481;-62
2021/06/04 11:06:21;;;;;;;2.03;1.27;;;25.10;99.90;;;;;;5088699;28;20032;-62
2021/06/04 11:08:47;;;;;;;1.27;1.08;;;25.20;99.90;;;;;;5068731;28;20085;-62
2021/06/04 11:11:26;;;;;;;1.20;1.00;;;25.10;99.90;;;;;;5069565;28;20097;-61
2021/06/04 11:14:18;;;;;;;1.05;0.90;;;25.00;99.90;;;;;;5069166;28;20031;-61
2021/06/04 11:17:17;;;;;;;0.95;0.85;;;25.20;99.90;;;;;;5069138;28;20021;-62
2021/06/04 11:20:04;;;;;;;0.80;0.80;;;25.10;99.90;;;;;;5078385;28;20042;-62
2021/06/04 11:22:42;;;;;;;1.20;1.10;;;25.20;99.90;;;;;;5082697;28;20034;-61
2021/06/04 11:25:39;;;;;;;1.77;1.10;;;25.40;99.90;;;;;;5086849;28;20127;-61
2021/06/04 11:28:27;;;;;;;1.85;1.10;;;25.50;99.90;;;;;;5068677;28;20063;-61
2021/06/04 11:30:56;;;;;;;1.25;1.15;;;25.40;99.90;;;;;;5068294;28;20077;-61
2021/06/04 11:33:29;;;;;;;1.70;0.95;;;25.70;99.90;;;;;;5075320;28;20498;-61
2021/06/04 11:35:59;;;;;;;2.10;1.10;;;25.80;99.90;;;;;;5087708;28;20266;-61
2021/06/04 11:38:41;;;;;;;1.75;1.00;;;25.90;99.90;;;;;;5075516;28;20032;-61
2021/06/04 11:41:48;;;;;;;4.70;1.20;;;26.10;99.90;;;;;;5089150;28;20109;-61
2021/06/04 11:44:31;;;;;;;0.95;0.80;;;26.20;99.90;;;;;;5074232;28;20041;-61
2021/06/04 11:47:41;;;;;;;2.25;1.30;;;26.30;99.90;;;;;;5079217;28;20109;-61
2021/06/04 11:50:09;;;;;;;2.25;1.30;;;26.20;99.90;;;;;;5108573;28;20093;-61
2021/06/04 11:52:37;;;;;;;1.85;1.40;;;26.30;99.90;;;;;;5088603;28;20103;-61
2021/06/04 11:55:32;;;;;;;1.05;0.90;;;26.40;99.90;;;;;;5084765;28;20031;-62
2021/06/04 11:58:29;;;;;;;1.77;1.23;;;26.90;99.90;;;;;;5080555;28;20108;-61
2021/06/04 12:01:21;;;;;;;1.27;1.17;;;26.80;99.90;;;;;;5082416;28;20051;-61
2021/06/04 12:03:59;;;;;;;1.90;1.13;;;27.20;99.90;;;;;;5066536;28;20538;-62
2021/06/04 12:06:25;;;;;;;1.35;1.25;;;27.10;99.90;;;;;;5067000;28;20036;-61
2021/06/04 12:08:52;;;;;;;1.77;1.27;;;27.30;99.90;;;;;;5069655;28;20381;-61
2021/06/04 12:11:18;;;;;;;0.93;0.90;;;27.60;99.90;;;;;;5078587;28;20032;-61
2021/06/04 12:13:51;;;;;;;1.20;0.68;;;27.90;99.90;;;;;;5083191;28;20103;-62
2021/06/04 12:19:14;;;;;;;2.78;1.20;;;28.60;99.90;;;;;;5068987;28;20032;-62
2021/06/04 12:21:40;;;;;;;1.45;1.13;;;28.50;99.10;;;;;;5070043;28;20478;-62
2021/06/04 12:24:06;;;;;;;2.47;1.05;;;28.50;98.70;;;;;;5066745;28;20131;-62
2021/06/04 12:26:45;;;;;;;1.55;1.25;;;28.40;98.90;;;;;;5066217;28;20124;-62
2021/06/04 12:29:36;;;;;;;0.93;0.82;;;28.20;99.10;;;;;;5065834;28;20025;-61
2021/06/04 12:32:09;;;;;;;1.00;0.93;;;28.70;98.60;;;;;;5066280;28;20024;-61
2021/06/04 12:34:38;;;;;;;2.83;1.40;;;28.80;99.00;;;;;;5066434;28;20510;-60
2021/06/04 12:37:06;;;;;;;0.85;0.80;;;28.20;99.00;;;;;;5080917;28;20024;-61
2021/06/04 12:40:02;;;;;;;1.38;1.00;;;28.20;99.30;;;;;;5084582;28;20032;-61
2021/06/04 12:42:40;;;;;;;1.40;0.85;;;28.60;99.10;;;;;;5066514;28;20056;-61
2021/06/04 12:45:11;;;;;;;1.95;1.08;;;28.50;99.00;;;;;;5084875;28;20047;-60
2021/06/04 12:47:37;;;;;;;1.85;1.00;;;28.60;98.90;;;;;;5087456;28;20051;-61
2021/06/04 12:50:30;;;;;;;1.90;0.95;;;28.90;99.10;;;;;;5086350;28;20024;-61
2021/06/04 12:53:20;;;;;;;1.38;0.90;;;29.00;98.90;;;;;;5067936;28;20044;-61
2021/06/04 12:56:04;;;;;;;0.80;0.75;;;29.10;98.80;;;;;;5079736;28;20064;-61
2021/06/04 12:58:31;;;;;;;;;;;29.30;98.90;;;;;;5069193;28;20036;-61
2021/06/04 13:01:12;;;;;;;1.73;1.08;;;29.30;98.90;;;;;;5075640;28;19915;-61
2021/06/04 13:03:42;;;;;;;2.08;0.85;;;29.50;98.40;;;;;;5072424;28;20471;-60
2021/06/04 13:06:19;;;;;;;2.17;1.30;;;29.40;98.30;;;;;;5086793;28;20545;-61
2021/06/04 13:08:48;;;;;;;1.80;1.42;;;28.90;98.40;;;;;;5085821;28;20035;-61
2021/06/04 13:11:44;;;;;;;2.63;1.13;;;28.80;98.40;;;;;;5084354;28;20074;-61
2021/06/04 13:14:36;;;;;;;1.20;0.90;;;28.60;99.00;;;;;;5068899;28;20526;-61
2021/06/04 13:17:31;;;;;;;0.60;0.60;;;28.50;99.30;;;;;;5085219;28;20036;-61
2021/06/04 13:20:38;;;;;;;1.02;0.98;;;28.60;99.60;;;;;;5082658;28;20039;-61
2021/06/04 13:23:10;;;;;;;0.60;0.60;;;28.50;99.10;;;;;;5078292;28;20073;-61
2021/06/04 13:25:37;;;;;;;1.58;0.90;;;28.10;99.50;;;;;;5081174;28;20063;-62
2021/06/04 13:28:42;;;;;;;1.35;0.82;;;28.00;99.00;;;;;;5077182;28;20058;-60